Lihue, HI

12:41 AM HST on October 02, 2014 (GMT -1000)
Wheeler Army Air Field | Change Station
CLOSE
Current Station
Airport
Location: Wheeler AAF,
Elevation: 255 m
Nearby Weather Stations
Active Advisory: High Surf Advisory

Elev 255 m 21.48 °N, 158.04 °W | Updated 43 minutes ago

Clear
Clear
21 °C
Feels Like 21 °C
N
4
Wind Variable Wind from North

Today
High -- | Low -- °C
--% Chance of Precip.
Yesterday
High -- | Low -- °C
Precip. -- mm
6:29 AM 6:23 PM
First Quarter, 57% visible
Pressure 1014 hPa
Visibility 16.1 kilometers
Clouds Clear
Dew Point 20 °C
Humidity 91%
Rainfall 31.0 mm
Snow Depth Not available.
UV 0 out of 12
Pollen Not available.
Air Quality Not available.
Flu Activity Not available.
METAR PHHI 020958Z AUTO 01002KT 10SM CLR 21/20 A2997 RMK AO2 SLP137 T02130198 402980209 $

More Conditions Fewer Conditions

Pressure 1014 hPa
Visibility 16.1 kilometers
Clouds Clear
Dew Point 20 °C
Humidity 91%
Rainfall 31.0 mm
Snow Depth Not available.
UV 0 out of 12
Pollen Not available.
Air Quality Not available.
Flu Activity Not available.
METAR PHHI 020958Z AUTO 01002KT 10SM CLR 21/20 A2997 RMK AO2 SLP137 T02130198 402980209 $

More Conditions Fewer Conditions

10-Day Weather Forecast

Almanac

Astronomy

Oct. 02, 2014 Rise Set
Actual Time 6:29 AM HST 6:23 PM HST
Civil Twilight 6:06 AM HST 6:46 PM HST
Nautical Twilight 5:41 AM HST 7:12 PM HST
Astronomical Twilight 5:15 AM HST 7:37 PM HST
Moon 2:03 PM HST 12:36 AM HST
Length of Visible Light 12h 39m
Length of Day
11h 54m
Tomorrow will be 1m 14s shorter.
First Quarter, 57% of the Moon is Illuminated
Today
First Quarter
Oct 8
Full
Oct 15
Last Quarter
Oct 23
New
Oct 30
First Quarter

Today's Extremes

State Highs State Lows

Community

WunderPhotos

Upload Photos

1,758,210 photos uploaded!

WunderBlogs® & News

Nearby

Snow Depth

Station Depth Elevation
No new snow has been reported.

Earthquake Activity

City Distance Mag. Time & Date
No recent earthquake activity has been reported nearby.
Minimum magnitude displayed is 2.5.

Coastal Water Temperatures

Place Temperature
No Stations Reporting

Nearby Weather Stations